createdAt,value
2015-07-22T00:00:09.239Z,85.58
2015-07-22T00:00:21.567Z,85.49
2015-07-22T00:00:33.911Z,85.68
2015-07-22T00:00:46.257Z,85.58
2015-07-22T00:00:58.632Z,85.77
2015-07-22T00:01:10.976Z,85.87
2015-07-22T00:01:23.319Z,85.49
2015-07-22T00:01:35.679Z,85.58
2015-07-22T00:01:48.055Z,85.49
2015-07-22T00:02:00.430Z,85.68
2015-07-22T00:02:12.805Z,85.77
2015-07-22T00:02:25.164Z,85.39
2015-07-22T00:02:37.555Z,85.68
2015-07-22T00:02:49.917Z,85.21
2015-07-22T00:03:02.323Z,85.68
2015-07-22T00:03:14.652Z,85.68
2015-07-22T00:03:27.011Z,85.97
2015-07-22T00:03:39.339Z,85.68
2015-07-22T00:03:51.684Z,85.87
2015-07-22T00:04:04.043Z,85.97
2015-07-22T00:04:16.371Z,85.58
2015-07-22T00:04:28.715Z,85.49
2015-07-22T00:04:41.059Z,85.49
2015-07-22T00:04:53.405Z,85.87
2015-07-22T00:05:05.951Z,85.97
2015-07-22T00:05:18.295Z,85.87
2015-07-22T00:05:30.639Z,85.87
2015-07-22T00:05:42.967Z,86.06
2015-07-22T00:05:55.329Z,85.77
2015-07-22T00:06:07.673Z,86.16
2015-07-22T00:06:20.001Z,85.87
2015-07-22T00:06:32.345Z,85.87
2015-07-22T00:06:44.704Z,85.87
2015-07-22T00:06:57.049Z,86.16
2015-07-22T00:07:09.409Z,86.35
2015-07-22T00:07:21.768Z,86.35
2015-07-22T00:07:34.143Z,86.25
2015-07-22T00:07:45.815Z,86.44
2015-07-22T00:07:58.192Z,86.16
2015-07-22T00:08:10.551Z,86.16
2015-07-22T00:08:22.926Z,86.16
2015-07-22T00:08:35.301Z,86.35
2015-07-22T00:08:47.645Z,86.35
2015-07-22T00:08:59.975Z,86.63
2015-07-22T00:09:12.334Z,86.35
2015-07-22T00:09:24.663Z,86.54
2015-07-22T00:09:37.006Z,86.63
2015-07-22T00:09:49.350Z,86.44
2015-07-22T00:10:01.696Z,86.44
2015-07-22T00:10:14.040Z,86.44
2015-07-22T00:10:26.383Z,86.06
2015-07-22T00:10:38.743Z,86.35
2015-07-22T00:10:51.071Z,86.16
2015-07-22T00:11:03.417Z,86.06
2015-07-22T00:11:15.760Z,86.25
2015-07-22T00:11:28.104Z,86.06
2015-07-22T00:11:40.448Z,86.06
2015-07-22T00:11:52.776Z,86.35
2015-07-22T00:12:05.106Z,86.16
2015-07-22T00:12:17.450Z,86.25
2015-07-22T00:12:29.809Z,86.35
2015-07-22T00:12:42.153Z,86.44
2015-07-22T00:12:54.497Z,86.35
2015-07-22T00:13:06.889Z,86.44
2015-07-22T00:13:19.264Z,86.35
2015-07-22T00:13:31.639Z,86.63
2015-07-22T00:13:43.999Z,86.63
2015-07-22T00:13:56.391Z,86.63
2015-07-22T00:14:08.751Z,86.82
2015-07-22T00:14:21.126Z,86.92
2015-07-22T00:14:33.454Z,86.92
2015-07-22T00:14:45.798Z,86.73
2015-07-22T00:14:58.128Z,86.44
2015-07-22T00:15:10.471Z,86.73
2015-07-22T00:15:22.815Z,86.73
2015-07-22T00:15:35.143Z,86.54
2015-07-22T00:15:47.487Z,86.73
2015-07-22T00:15:59.833Z,87.02
2015-07-22T00:16:12.177Z,86.69
2015-07-22T00:16:24.520Z,86.73
2015-07-22T00:16:36.864Z,86.63
2015-07-22T00:16:49.192Z,86.63
2015-07-22T00:17:01.538Z,86.73
2015-07-22T00:17:13.882Z,86.49
2015-07-22T00:17:26.225Z,86.49
2015-07-22T00:17:38.585Z,86.49
2015-07-22T00:17:50.944Z,86.49
2015-07-22T00:18:03.290Z,86.49
2015-07-22T00:18:15.634Z,86.92
2015-07-22T00:18:27.993Z,86.88
2015-07-22T00:18:40.352Z,87.07
2015-07-22T00:18:52.727Z,86.49
2015-07-22T00:19:05.089Z,86.44
2015-07-22T00:19:17.448Z,87.07
2015-07-22T00:19:29.776Z,86.98
2015-07-22T00:19:42.120Z,87.21
2015-07-22T00:19:54.729Z,86.98
2015-07-22T00:20:07.075Z,87.26
2015-07-22T00:20:19.419Z,86.88
2015-07-22T00:20:31.763Z,87.16
2015-07-22T00:20:44.106Z,87.16
2015-07-22T00:20:56.450Z,87.26
2015-07-22T00:21:08.779Z,87.64
2015-07-22T00:21:21.123Z,87.64
2015-07-22T00:21:33.482Z,87.83
2015-07-22T00:21:45.842Z,88.12
2015-07-22T00:21:58.170Z,87.83
2015-07-22T00:22:10.517Z,88.02
2015-07-22T00:22:22.876Z,87.93
2015-07-22T00:22:35.220Z,87.83
2015-07-22T00:22:47.564Z,87.83
2015-07-22T00:22:59.907Z,87.64
2015-07-22T00:23:11.549Z,87.74
2015-07-22T00:23:23.940Z,87.83
2015-07-22T00:23:36.299Z,87.64
2015-07-22T00:23:47.955Z,88.02
2015-07-22T00:23:59.611Z,87.83
2015-07-22T00:24:12.005Z,88.69
2015-07-22T00:24:24.396Z,88.69
2015-07-22T00:24:36.771Z,88.21
2015-07-22T00:24:49.099Z,88.4
2015-07-22T00:25:01.443Z,88.4
2015-07-22T00:25:13.787Z,88.4
2015-07-22T00:25:26.115Z,88.31
2015-07-22T00:25:38.475Z,88.31
2015-07-22T00:25:50.803Z,88.31
2015-07-22T00:26:03.147Z,88.21
2015-07-22T00:26:15.493Z,88.21
2015-07-22T00:26:27.853Z,88.21
2015-07-22T00:26:40.181Z,88.31
2015-07-22T00:26:52.525Z,88.31
2015-07-22T00:27:04.868Z,88.31
2015-07-22T00:27:17.214Z,88.4
2015-07-22T00:27:29.558Z,88.4
2015-07-22T00:27:41.902Z,88.21
2015-07-22T00:27:54.230Z,88.59
2015-07-22T00:28:06.589Z,88.4
2015-07-22T00:28:18.934Z,88.4
2015-07-22T00:28:31.278Z,88.4
2015-07-22T00:28:43.637Z,88.4
2015-07-22T00:28:55.996Z,88.59
2015-07-22T00:29:08.371Z,88.5
2015-07-22T00:29:20.764Z,88.31
2015-07-22T00:29:33.139Z,88.59
2015-07-22T00:29:45.514Z,88.4
2015-07-22T00:29:57.889Z,88.59
2015-07-22T00:30:09.561Z,88.4
2015-07-22T00:30:21.892Z,88.4
2015-07-22T00:30:34.236Z,88.59
2015-07-22T00:30:46.580Z,88.59
2015-07-22T00:30:58.923Z,88.31
2015-07-22T00:31:11.267Z,88.4
2015-07-22T00:31:23.597Z,88.21
2015-07-22T00:31:35.941Z,88.21
2015-07-22T00:31:48.285Z,88.31
2015-07-22T00:32:00.613Z,88.4
2015-07-22T00:32:12.957Z,88.5
2015-07-22T00:32:25.302Z,88.59
2015-07-22T00:32:37.646Z,88.21
2015-07-22T00:32:49.271Z,88.59
2015-07-22T00:33:00.927Z,88.59
2015-07-22T00:33:13.271Z,88.78
2015-07-22T00:33:25.601Z,88.69
2015-07-22T00:33:37.945Z,88.78
2015-07-22T00:33:50.304Z,88.78
2015-07-22T00:34:02.664Z,88.02
2015-07-22T00:34:15.023Z,88.69
2015-07-22T00:34:27.383Z,88.88
2015-07-22T00:34:39.758Z,88.59
2015-07-22T00:34:52.133Z,88.4
2015-07-22T00:35:04.493Z,88.69
2015-07-22T00:35:16.868Z,88.5
2015-07-22T00:35:29.260Z,88.21
2015-07-22T00:35:41.620Z,88.4
2015-07-22T00:35:53.964Z,88.4
2015-07-22T00:36:06.292Z,88.4
2015-07-22T00:36:18.635Z,88.4
2015-07-22T00:36:30.981Z,88.31
2015-07-22T00:36:43.325Z,87.93
2015-07-22T00:36:55.653Z,88.21
2015-07-22T00:37:07.997Z,88.4
2015-07-22T00:37:20.169Z,88.4
2015-07-22T00:37:32.530Z,88.4
2015-07-22T00:37:44.858Z,88.02
2015-07-22T00:37:57.202Z,88.02
2015-07-22T00:38:09.546Z,88.5
2015-07-22T00:38:21.186Z,88.21
2015-07-22T00:38:33.516Z,88.12
2015-07-22T00:38:45.860Z,88.4
2015-07-22T00:38:58.188Z,88.21
2015-07-22T00:39:10.548Z,88.21
2015-07-22T00:39:22.907Z,88.31
2015-07-22T00:39:35.253Z,88.59
2015-07-22T00:39:47.612Z,88.59
2015-07-22T00:39:59.987Z,87.83
2015-07-22T00:40:12.347Z,87.74
2015-07-22T00:40:24.722Z,88.12
2015-07-22T00:40:37.083Z,87.93
2015-07-22T00:40:49.442Z,87.83
2015-07-22T00:41:01.833Z,87.54
2015-07-22T00:41:14.224Z,87.93
2015-07-22T00:41:26.630Z,87.74
2015-07-22T00:41:38.960Z,87.74
2015-07-22T00:41:51.304Z,87.64
2015-07-22T00:42:03.647Z,87.45
2015-07-22T00:42:15.991Z,87.54
2015-07-22T00:42:28.335Z,87.83
2015-07-22T00:42:39.962Z,87.83
2015-07-22T00:42:52.306Z,87.83
2015-07-22T00:43:04.665Z,87.64
2015-07-22T00:43:17.009Z,87.74
2015-07-22T00:43:29.384Z,87.83
2015-07-22T00:43:41.745Z,87.93
2015-07-22T00:43:54.089Z,87.93
2015-07-22T00:44:06.433Z,87.83
2015-07-22T00:44:18.776Z,87.74
2015-07-22T00:44:31.105Z,87.83
2015-07-22T00:44:43.450Z,88.02
2015-07-22T00:44:55.810Z,87.45
2015-07-22T00:45:08.153Z,87.35
2015-07-22T00:45:20.497Z,87.26
2015-07-22T00:45:32.857Z,87.07
2015-07-22T00:45:45.234Z,87.07
2015-07-22T00:45:57.609Z,87.07
2015-07-22T00:46:09.968Z,87.35
2015-07-22T00:46:21.640Z,87.16
2015-07-22T00:46:34.015Z,87.07
2015-07-22T00:46:46.375Z,86.88
2015-07-22T00:46:58.719Z,86.88
2015-07-22T00:47:11.047Z,87.16
2015-07-22T00:47:23.391Z,86.98
2015-07-22T00:47:35.735Z,87.07
2015-07-22T00:47:48.081Z,86.98
2015-07-22T00:48:00.409Z,86.88
2015-07-22T00:48:12.753Z,86.98
2015-07-22T00:48:25.097Z,87.07
2015-07-22T00:48:37.441Z,86.98
2015-07-22T00:48:49.786Z,87.26
2015-07-22T00:49:02.115Z,87.16
2015-07-22T00:49:14.458Z,86.98
2015-07-22T00:49:26.802Z,87.16
2015-07-22T00:49:39.130Z,87.16
2015-07-22T00:49:51.476Z,87.16
2015-07-22T00:50:03.820Z,87.07
2015-07-22T00:50:16.179Z,86.98
2015-07-22T00:50:28.538Z,87.07
2015-07-22T00:50:40.898Z,86.98
2015-07-22T00:50:53.259Z,86.88
2015-07-22T00:51:05.619Z,86.98
2015-07-22T00:51:17.978Z,86.78
2015-07-22T00:51:30.337Z,86.98
2015-07-22T00:51:42.712Z,86.78
2015-07-22T00:51:55.088Z,86.69
2015-07-22T00:52:07.448Z,86.88
2015-07-22T00:52:19.838Z,87.16
2015-07-22T00:52:32.166Z,87.35
2015-07-22T00:52:44.510Z,86.88
2015-07-22T00:52:56.856Z,87.07
2015-07-22T00:53:08.481Z,86.49
2015-07-22T00:53:20.840Z,86.49
2015-07-22T00:53:33.184Z,86.59
2015-07-22T00:53:45.528Z,86.4
2015-07-22T00:53:57.859Z,86.69
2015-07-22T00:54:10.218Z,86.21
2015-07-22T00:54:22.562Z,86.59
2015-07-22T00:54:34.906Z,86.69
2015-07-22T00:54:47.250Z,86.88
2015-07-22T00:54:59.594Z,86.69
2015-07-22T00:55:11.938Z,86.69
2015-07-22T00:55:24.282Z,86.78
2015-07-22T00:55:36.610Z,86.59
2015-07-22T00:55:48.956Z,86.4
2015-07-22T00:56:01.315Z,86.49
2015-07-22T00:56:13.659Z,87.07
2015-07-22T00:56:26.018Z,87.16
2015-07-22T00:56:38.378Z,87.07
2015-07-22T00:56:50.755Z,87.07
2015-07-22T00:57:03.130Z,87.07
2015-07-22T00:57:15.505Z,86.88
2015-07-22T00:57:27.880Z,86.98
2015-07-22T00:57:40.255Z,86.4
2015-07-22T00:57:52.600Z,86.69
2015-07-22T00:58:04.944Z,86.4
2015-07-22T00:58:17.288Z,87.07
2015-07-22T00:58:29.616Z,87.35
2015-07-22T00:58:41.975Z,87.07
2015-07-22T00:58:54.321Z,87.07
2015-07-22T00:59:06.649Z,87.26
2015-07-22T00:59:18.993Z,87.26
2015-07-22T00:59:31.337Z,86.98
2015-07-22T00:59:43.665Z,86.88
2015-07-22T00:59:56.026Z,87.16
2015-07-22T01:00:08.354Z,87.07
2015-07-22T01:00:20.714Z,86.4
2015-07-22T01:00:33.057Z,86.78
2015-07-22T01:00:45.401Z,86.78
2015-07-22T01:00:57.731Z,86.78
2015-07-22T01:01:10.075Z,86.69
2015-07-22T01:01:22.434Z,86.69
2015-07-22T01:01:34.778Z,86.59
2015-07-22T01:01:47.138Z,86.59
2015-07-22T01:01:59.483Z,86.69
2015-07-22T01:02:11.890Z,86.49
2015-07-22T01:02:24.280Z,86.59
2015-07-22T01:02:36.655Z,86.59
2015-07-22T01:02:49.030Z,86.49
2015-07-22T01:03:01.423Z,86.49
2015-07-22T01:03:13.829Z,86.59
2015-07-22T01:03:25.454Z,86.49
2015-07-22T01:03:37.798Z,86.69
2015-07-22T01:03:50.126Z,86.69
2015-07-22T01:04:02.472Z,86.11
2015-07-22T01:04:14.815Z,86.3
2015-07-22T01:04:27.159Z,85.64
2015-07-22T01:04:39.487Z,85.93
2015-07-22T01:04:51.831Z,85.54
2015-07-22T01:05:04.161Z,85.45
2015-07-22T01:05:16.521Z,85.64
2015-07-22T01:05:28.864Z,85.73
2015-07-22T01:05:41.036Z,85.16
2015-07-22T01:05:53.380Z,85.16
2015-07-22T01:06:05.710Z,85.16
2015-07-22T01:06:18.054Z,85.16
2015-07-22T01:06:30.398Z,85.16
2015-07-22T01:06:42.741Z,85.16
2015-07-22T01:06:55.085Z,84.88
2015-07-22T01:07:07.431Z,84.78
2015-07-22T01:07:19.790Z,84.78
2015-07-22T01:07:32.165Z,85.06
2015-07-22T01:07:44.556Z,84.59
2015-07-22T01:07:56.931Z,84.88
2015-07-22T01:08:09.307Z,84.59
2015-07-22T01:08:21.682Z,84.78
2015-07-22T01:08:34.057Z,84.78
2015-07-22T01:08:46.416Z,84.59
2015-07-22T01:08:58.776Z,84.59
2015-07-22T01:09:11.122Z,84.59
2015-07-22T01:09:22.747Z,84.59
2015-07-22T01:09:35.357Z,84.4
2015-07-22T01:09:47.700Z,84.4
2015-07-22T01:10:00.044Z,84.78
2015-07-22T01:10:12.374Z,84.4
2015-07-22T01:10:24.723Z,84.59
2015-07-22T01:10:37.067Z,84.3
2015-07-22T01:10:49.426Z,84.59
2015-07-22T01:11:01.770Z,84.2
2015-07-22T01:11:14.115Z,84.59
2015-07-22T01:11:26.443Z,84.59
2015-07-22T01:11:38.802Z,84.4
2015-07-22T01:11:51.146Z,84.88
2015-07-22T01:12:03.474Z,84.78
2015-07-22T01:12:15.820Z,84.59
2015-07-22T01:12:28.163Z,84.88
2015-07-22T01:12:40.507Z,85.16
2015-07-22T01:12:52.851Z,84.78
2015-07-22T01:13:05.210Z,85.35
2015-07-22T01:13:17.573Z,85.25
2015-07-22T01:13:29.963Z,85.83
2015-07-22T01:13:42.338Z,85.93
2015-07-22T01:13:54.713Z,85.83
2015-07-22T01:14:07.088Z,84.78
2015-07-22T01:14:19.496Z,84.78
2015-07-22T01:14:31.871Z,84.69
2015-07-22T01:14:43.511Z,84.49
2015-07-22T01:14:55.839Z,84.49
2015-07-22T01:15:08.183Z,84.11
2015-07-22T01:15:20.514Z,84.49
2015-07-22T01:15:32.858Z,84.11
2015-07-22T01:15:45.202Z,83.73
2015-07-22T01:15:57.530Z,83.92
2015-07-22T01:16:09.874Z,83.73
2015-07-22T01:16:22.219Z,84.01
2015-07-22T01:16:34.579Z,83.73
2015-07-22T01:16:46.907Z,83.83
2015-07-22T01:16:59.251Z,83.64
2015-07-22T01:17:11.610Z,83.64
2015-07-22T01:17:23.956Z,82.97
2015-07-22T01:17:36.299Z,83.16
2015-07-22T01:17:48.643Z,83.06
2015-07-22T01:18:00.987Z,83.16
2015-07-22T01:18:13.346Z,83.16
2015-07-22T01:18:25.692Z,83.06
2015-07-22T01:18:38.051Z,83.16
2015-07-22T01:18:50.395Z,83.16
2015-07-22T01:19:02.770Z,83.06
2015-07-22T01:19:15.145Z,83.06
2015-07-22T01:19:27.521Z,83.16
2015-07-22T01:19:39.912Z,83.35
2015-07-22T01:19:52.302Z,82.87
2015-07-22T01:20:04.662Z,83.06
2015-07-22T01:20:16.334Z,83.06
2015-07-22T01:20:28.759Z,83.06
2015-07-22T01:20:41.102Z,83.06
2015-07-22T01:20:53.446Z,83.06
2015-07-22T01:21:05.790Z,82.97
2015-07-22T01:21:18.118Z,82.97
2015-07-22T01:21:30.478Z,83.06
2015-07-22T01:21:42.806Z,83.16
2015-07-22T01:21:55.135Z,83.16
2015-07-22T01:22:07.494Z,82.78
2015-07-22T01:22:19.838Z,82.68
2015-07-22T01:22:32.184Z,82.97
2015-07-22T01:22:44.528Z,82.68
2015-07-22T01:22:56.872Z,82.78
2015-07-22T01:23:09.216Z,83.16
2015-07-22T01:23:20.856Z,83.16
2015-07-22T01:23:33.186Z,83.25
2015-07-22T01:23:45.530Z,83.25
2015-07-22T01:23:57.874Z,83.25
2015-07-22T01:24:10.218Z,83.06
2015-07-22T01:24:22.561Z,83.06
2015-07-22T01:24:34.907Z,82.87
2015-07-22T01:24:47.267Z,82.97
2015-07-22T01:24:59.657Z,82.78
2015-07-22T01:25:12.017Z,83.16
2015-07-22T01:25:24.392Z,83.16
2015-07-22T01:25:36.783Z,82.97
2015-07-22T01:25:49.158Z,82.97
2015-07-22T01:26:01.502Z,82.78
2015-07-22T01:26:13.846Z,82.4
2015-07-22T01:26:26.189Z,82.68
2015-07-22T01:26:38.535Z,82.49
2015-07-22T01:26:50.879Z,82.59
2015-07-22T01:27:03.223Z,82.68
2015-07-22T01:27:15.566Z,82.78
2015-07-22T01:27:27.895Z,82.78
2015-07-22T01:27:40.241Z,82.87
2015-07-22T01:27:52.585Z,82.49
2015-07-22T01:28:04.913Z,82.87
2015-07-22T01:28:17.257Z,82.78
2015-07-22T01:28:29.601Z,82.49
2015-07-22T01:28:41.946Z,82.68
2015-07-22T01:28:54.275Z,82.68
2015-07-22T01:29:06.618Z,82.59
2015-07-22T01:29:18.978Z,82.78
2015-07-22T01:29:31.321Z,82.59
2015-07-22T01:29:43.667Z,82.3
2015-07-22T01:29:56.011Z,82.78
2015-07-22T01:30:08.355Z,82.87
2015-07-22T01:30:20.745Z,82.87
2015-07-22T01:30:33.089Z,82.87
2015-07-22T01:30:45.465Z,82.68
2015-07-22T01:30:57.824Z,82.87
2015-07-22T01:31:10.199Z,82.97
2015-07-22T01:31:22.559Z,82.87
2015-07-22T01:31:34.918Z,82.49
2015-07-22T01:31:47.264Z,82.97
2015-07-22T01:31:59.608Z,82.97
2015-07-22T01:32:11.951Z,82.87
2015-07-22T01:32:24.295Z,83.25
2015-07-22T01:32:36.639Z,83.25
2015-07-22T01:32:48.985Z,83.25
2015-07-22T01:33:01.313Z,83.16
2015-07-22T01:33:13.657Z,83.16
2015-07-22T01:33:26.016Z,82.78
2015-07-22T01:33:38.360Z,82.78
2015-07-22T01:33:50.705Z,82.3
2015-07-22T01:34:03.034Z,82.59
2015-07-22T01:34:15.377Z,82.3
2015-07-22T01:34:27.737Z,82.59
2015-07-22T01:34:40.065Z,82.68
2015-07-22T01:34:51.692Z,82.59
2015-07-22T01:35:04.036Z,82.4
2015-07-22T01:35:16.395Z,82.49
2015-07-22T01:35:28.754Z,82.97
2015-07-22T01:35:41.098Z,83.06
2015-07-22T01:35:53.475Z,83.16
2015-07-22T01:36:05.834Z,83.16
2015-07-22T01:36:18.209Z,82.68
2015-07-22T01:36:30.569Z,83.25
2015-07-22T01:36:42.928Z,83.06
2015-07-22T01:36:55.321Z,82.97
2015-07-22T01:37:07.680Z,82.87
2015-07-22T01:37:20.055Z,83.35
2015-07-22T01:37:32.415Z,82.87
2015-07-22T01:37:44.758Z,83.16
2015-07-22T01:37:57.104Z,82.78
2015-07-22T01:38:09.432Z,83.25
2015-07-22T01:38:21.792Z,83.06
2015-07-22T01:38:34.120Z,82.87
2015-07-22T01:38:46.463Z,82.68
2015-07-22T01:38:58.808Z,82.68
2015-07-22T01:39:11.152Z,82.59
2015-07-22T01:39:23.480Z,82.4
2015-07-22T01:39:35.824Z,82.87
2015-07-22T01:39:48.155Z,82.97
2015-07-22T01:40:00.514Z,82.97
2015-07-22T01:40:12.842Z,82.78
2015-07-22T01:40:25.186Z,82.87
2015-07-22T01:40:37.530Z,83.25
2015-07-22T01:40:49.876Z,83.16
2015-07-22T01:41:02.235Z,83.06
2015-07-22T01:41:14.579Z,82.78
2015-07-22T01:41:26.923Z,82.97
2015-07-22T01:41:39.313Z,82.59
2015-07-22T01:41:51.690Z,82.59
2015-07-22T01:42:04.065Z,82.59
2015-07-22T01:42:16.440Z,82.68
2015-07-22T01:42:28.815Z,82.49
2015-07-22T01:42:41.190Z,82.78
2015-07-22T01:42:53.551Z,82.59
2015-07-22T01:43:05.894Z,82.87
2015-07-22T01:43:18.238Z,82.97
2015-07-22T01:43:30.566Z,82.49
2015-07-22T01:43:42.910Z,82.59
2015-07-22T01:43:55.256Z,82.49
2015-07-22T01:44:07.615Z,82.97
2015-07-22T01:44:19.959Z,82.49
2015-07-22T01:44:32.318Z,83.06
2015-07-22T01:44:44.646Z,82.87
2015-07-22T01:44:56.993Z,82.68
2015-07-22T01:45:09.368Z,83.06
2015-07-22T01:45:21.712Z,83.16
2015-07-22T01:45:34.071Z,83.16
2015-07-22T01:45:46.399Z,83.06
2015-07-22T01:45:58.745Z,83.25
2015-07-22T01:46:11.104Z,83.06
2015-07-22T01:46:23.433Z,82.78
2015-07-22T01:46:35.792Z,82.78
2015-07-22T01:46:48.151Z,82.87
2015-07-22T01:47:00.497Z,83.06
2015-07-22T01:47:12.856Z,83.06
2015-07-22T01:47:25.247Z,82.68
2015-07-22T01:47:37.606Z,83.16
2015-07-22T01:47:49.966Z,83.25
2015-07-22T01:48:02.343Z,83.06
2015-07-22T01:48:14.702Z,82.87
2015-07-22T01:48:27.062Z,83.06
2015-07-22T01:48:39.405Z,83.06
2015-07-22T01:48:51.749Z,82.78
2015-07-22T01:49:04.078Z,82.87
2015-07-22T01:49:16.406Z,82.87
2015-07-22T01:49:28.750Z,82.97
2015-07-22T01:49:41.078Z,82.97
2015-07-22T01:49:53.422Z,82.78
2015-07-22T01:50:05.753Z,82.78
2015-07-22T01:50:18.097Z,82.68
2015-07-22T01:50:30.441Z,82.97
2015-07-22T01:50:42.769Z,82.97
2015-07-22T01:50:55.097Z,82.87
2015-07-22T01:51:07.442Z,82.78
2015-07-22T01:51:19.785Z,82.87
2015-07-22T01:51:32.113Z,82.49
2015-07-22T01:51:44.457Z,83.06
2015-07-22T01:51:56.801Z,83.16
2015-07-22T01:52:09.132Z,83.25
2015-07-22T01:52:21.476Z,83.16
2015-07-22T01:52:33.835Z,83.16
2015-07-22T01:52:46.179Z,83.06
2015-07-22T01:52:58.554Z,82.87
2015-07-22T01:53:10.914Z,82.97
2015-07-22T01:53:23.258Z,82.97
2015-07-22T01:53:35.633Z,82.63
2015-07-22T01:53:47.992Z,82.78
2015-07-22T01:54:00.352Z,82.78
2015-07-22T01:54:12.730Z,82.97
2015-07-22T01:54:25.074Z,82.91
2015-07-22T01:54:37.386Z,82.68
2015-07-22T01:54:49.730Z,82.2
2015-07-22T01:55:02.089Z,82.78
2015-07-22T01:55:14.418Z,82.78
2015-07-22T01:55:26.762Z,82.4
2015-07-22T01:55:39.106Z,82.49
2015-07-22T01:55:51.434Z,82.59
2015-07-22T01:56:03.793Z,82.4
2015-07-22T01:56:16.139Z,82.59
2015-07-22T01:56:28.467Z,82.78
2015-07-22T01:56:40.811Z,82.49
2015-07-22T01:56:53.139Z,82.49
2015-07-22T01:57:05.498Z,82.59
2015-07-22T01:57:17.844Z,82.78
2015-07-22T01:57:30.172Z,82.59
2015-07-22T01:57:41.813Z,82.59
2015-07-22T01:57:54.172Z,82.49
2015-07-22T01:58:06.516Z,82.59
2015-07-22T01:58:18.877Z,82.49
2015-07-22T01:58:31.237Z,82.59
2015-07-22T01:58:43.596Z,82.78
2015-07-22T01:58:55.971Z,82.59
2015-07-22T01:59:08.346Z,82.49
2015-07-22T01:59:20.724Z,82.68
2015-07-22T01:59:32.396Z,82.68
2015-07-22T01:59:44.771Z,82.59
2015-07-22T01:59:57.115Z,82.11
2015-07-22T02:00:09.459Z,82.11
2015-07-22T02:00:21.085Z,82.4
2015-07-22T02:00:33.428Z,82.11
2015-07-22T02:00:45.756Z,82.11
2015-07-22T02:00:58.116Z,82.01
2015-07-22T02:01:10.444Z,81.92
2015-07-22T02:01:22.790Z,82.11
2015-07-22T02:01:35.133Z,82.4
2015-07-22T02:01:47.477Z,82.2
2015-07-22T02:01:59.805Z,82.4
2015-07-22T02:02:12.133Z,82.3
2015-07-22T02:02:24.479Z,82.11
2015-07-22T02:02:36.839Z,82.11
2015-07-22T02:02:49.167Z,82.11
2015-07-22T02:03:01.510Z,82.59
2015-07-22T02:03:13.854Z,82.49
2015-07-22T02:03:26.200Z,82.68
2015-07-22T02:03:38.559Z,82.59
2015-07-22T02:03:50.200Z,82.49
2015-07-22T02:04:02.544Z,82.59
2015-07-22T02:04:14.919Z,82.4
2015-07-22T02:04:27.296Z,82.49
2015-07-22T02:04:39.686Z,82.59
2015-07-22T02:04:52.046Z,82.49
2015-07-22T02:05:04.468Z,82.68
2015-07-22T02:05:16.858Z,82.59
2015-07-22T02:05:29.235Z,82.78
2015-07-22T02:05:41.641Z,82.97
2015-07-22T02:05:53.970Z,82.78
2015-07-22T02:06:06.313Z,82.59
2015-07-22T02:06:18.641Z,82.97
2015-07-22T02:06:30.987Z,82.97
2015-07-22T02:06:43.331Z,82.59
2015-07-22T02:06:55.690Z,82.49
2015-07-22T02:07:08.034Z,82.59
2015-07-22T02:07:20.378Z,82.11
2015-07-22T02:07:32.708Z,82.49
2015-07-22T02:07:45.052Z,82.11
2015-07-22T02:07:57.395Z,82.59
2015-07-22T02:08:09.724Z,82.59
2015-07-22T02:08:22.083Z,82.68
2015-07-22T02:08:34.413Z,82.01
2015-07-22T02:08:46.757Z,82.4
2015-07-22T02:08:59.085Z,82.3
2015-07-22T02:09:11.444Z,82.4
2015-07-22T02:09:23.788Z,81.82
2015-07-22T02:09:36.149Z,82.49
2015-07-22T02:09:48.509Z,82.68
2015-07-22T02:10:00.884Z,82.49
2015-07-22T02:10:13.259Z,82.3
2015-07-22T02:10:25.618Z,82.3
2015-07-22T02:10:37.995Z,82.4
2015-07-22T02:10:50.433Z,81.92
2015-07-22T02:11:02.792Z,81.92
2015-07-22T02:11:15.151Z,82.11
2015-07-22T02:11:27.495Z,81.82
2015-07-22T02:11:39.841Z,82.49
2015-07-22T02:11:52.169Z,82.4
2015-07-22T02:12:04.513Z,82.01
2015-07-22T02:12:16.857Z,81.92
2015-07-22T02:12:29.185Z,82.2
2015-07-22T02:12:41.530Z,81.82
2015-07-22T02:12:53.874Z,81.82
2015-07-22T02:13:06.484Z,82.2
2015-07-22T02:13:18.827Z,82.2
2015-07-22T02:13:31.171Z,81.92
2015-07-22T02:13:43.501Z,81.82
2015-07-22T02:13:55.861Z,81.92
2015-07-22T02:14:08.204Z,82.2
2015-07-22T02:14:20.532Z,82.2
2015-07-22T02:14:32.892Z,81.92
2015-07-22T02:14:45.237Z,81.92
2015-07-22T02:14:57.596Z,82.3
2015-07-22T02:15:09.955Z,82.3
2015-07-22T02:15:22.299Z,82.49
2015-07-22T02:15:34.658Z,82.78
2015-07-22T02:15:47.020Z,82.68
2015-07-22T02:15:59.395Z,82.59
2015-07-22T02:16:11.754Z,82.59
2015-07-22T02:16:24.114Z,82.87
2015-07-22T02:16:36.504Z,82.87
2015-07-22T02:16:48.867Z,82.59
2015-07-22T02:17:01.257Z,82.3
2015-07-22T02:17:13.601Z,82.01
2015-07-22T02:17:24.523Z,82.3
2015-07-22T02:17:36.867Z,81.82
2015-07-22T02:17:49.211Z,82.2
2015-07-22T02:18:01.555Z,82.11
2015-07-22T02:18:13.899Z,82.11
2015-07-22T02:18:26.227Z,82.2
2015-07-22T02:18:38.571Z,82.4
2015-07-22T02:18:50.917Z,81.44
2015-07-22T02:19:03.246Z,81.63
2015-07-22T02:19:15.574Z,81.82
2015-07-22T02:19:27.917Z,82.01
2015-07-22T02:19:40.261Z,81.82
2015-07-22T02:19:52.606Z,81.82
2015-07-22T02:20:04.934Z,81.54
2015-07-22T02:20:17.278Z,82.2
2015-07-22T02:20:29.622Z,82.11
2015-07-22T02:20:41.965Z,81.82
2015-07-22T02:20:54.327Z,82.2
2015-07-22T02:21:06.670Z,81.92
2015-07-22T02:21:19.014Z,82.3
2015-07-22T02:21:31.405Z,81.92
2015-07-22T02:21:43.780Z,82.2
2015-07-22T02:21:56.157Z,82.01
2015-07-22T02:22:07.797Z,82.2
2015-07-22T02:22:20.204Z,82.4
2015-07-22T02:22:32.547Z,82.3
2015-07-22T02:22:44.891Z,82.3
2015-07-22T02:22:57.096Z,82.3
2015-07-22T02:23:09.440Z,82.4
2015-07-22T02:23:21.784Z,82.49
2015-07-22T02:23:34.112Z,82.59
2015-07-22T02:23:46.471Z,82.97
2015-07-22T02:23:58.801Z,82.59
2015-07-22T02:24:11.145Z,82.59
2015-07-22T02:24:23.489Z,82.49
2015-07-22T02:24:35.833Z,82.49
2015-07-22T02:24:48.178Z,82.59
2015-07-22T02:25:00.507Z,82.68
2015-07-22T02:25:12.850Z,82.68
2015-07-22T02:25:25.178Z,82.59
2015-07-22T02:25:37.522Z,82.68
2015-07-22T02:25:50.134Z,82.68
2015-07-22T02:26:02.477Z,82.49
2015-07-22T02:26:14.837Z,82.3
2015-07-22T02:26:27.196Z,82.4
2015-07-22T02:26:39.540Z,82.97
2015-07-22T02:26:51.917Z,82.87
2015-07-22T02:27:04.292Z,82.87
2015-07-22T02:27:16.667Z,82.68
2015-07-22T02:27:29.042Z,82.59
2015-07-22T02:27:41.417Z,82.68
2015-07-22T02:27:53.794Z,82.78
2015-07-22T02:28:06.153Z,82.78
2015-07-22T02:28:18.497Z,82.59
2015-07-22T02:28:30.856Z,82.59
2015-07-22T02:28:43.200Z,82.4
2015-07-22T02:28:55.530Z,82.2
2015-07-22T02:29:07.858Z,82.3
2015-07-22T02:29:20.202Z,82.4
2015-07-22T02:29:32.546Z,82.2
2015-07-22T02:29:44.874Z,82.3
2015-07-22T02:29:57.235Z,82.49
2015-07-22T02:30:09.595Z,82.01
2015-07-22T02:30:21.923Z,82.68
2015-07-22T02:30:34.267Z,82.49
2015-07-22T02:30:45.892Z,82.49
2015-07-22T02:30:58.237Z,82.01
2015-07-22T02:31:10.581Z,82.59
2015-07-22T02:31:22.925Z,82.4
2015-07-22T02:31:35.269Z,82.59
2015-07-22T02:31:47.612Z,82.59
2015-07-22T02:31:59.958Z,82.3
2015-07-22T02:32:12.317Z,82.01
2015-07-22T02:32:24.661Z,82.01
2015-07-22T02:32:37.036Z,82.59
2015-07-22T02:32:49.411Z,82.01
2015-07-22T02:33:01.773Z,81.92
2015-07-22T02:33:14.132Z,82.49
2015-07-22T02:33:26.507Z,82.97
2015-07-22T02:33:38.882Z,82.68
2015-07-22T02:33:51.257Z,82.4
2015-07-22T02:34:03.602Z,82.2
2015-07-22T02:34:15.945Z,82.97
2015-07-22T02:34:28.289Z,83.06
2015-07-22T02:34:40.649Z,83.06
2015-07-22T02:34:53.008Z,83.06
2015-07-22T02:35:05.339Z,82.87
2015-07-22T02:35:17.683Z,82.78
2015-07-22T02:35:30.027Z,82.68
2015-07-22T02:35:42.370Z,82.68
2015-07-22T02:35:54.714Z,82.4
2015-07-22T02:36:07.060Z,82.59
2015-07-22T02:36:18.685Z,82.59
2015-07-22T02:36:31.029Z,82.68
2015-07-22T02:36:43.357Z,82.59
2015-07-22T02:36:55.700Z,82.68
2015-07-22T02:37:08.312Z,82.68
2015-07-22T02:37:20.687Z,82.4
2015-07-22T02:37:33.031Z,82.2
2015-07-22T02:37:45.374Z,82.68
2015-07-22T02:37:57.718Z,82.49
2015-07-22T02:38:09.376Z,82.68
2015-07-22T02:38:21.751Z,82.78
2015-07-22T02:38:34.126Z,83.06
2015-07-22T02:38:46.501Z,82.78
2015-07-22T02:38:58.876Z,82.97
2015-07-22T02:39:11.285Z,82.97
2015-07-22T02:39:23.644Z,82.87